Time;durP1;ratioP1;P1;durP2;ratioP2;P2;SDS_P1;SDS_P2;PMS_P1;PMS_P2;Temp;Humidity;BMP_temperature;BMP_pressure;BME280_temperature;BME280_humidity;BME280_pressure;Samples;Min_cycle;Max_cycle;Signal;HPM_P1;HPM_P2
2022/09/17 00:01:01;;;;;;;11.52;2.53;;;13.20;98.90;;;;;;4938019;28;92488;-72
2022/09/17 00:03:29;;;;;;;15.15;3.40;;;13.20;99.00;;;;;;4939226;28;93301;-72
2022/09/17 00:06:05;;;;;;;13.30;2.63;;;13.10;98.90;;;;;;4938014;28;98258;-72
2022/09/17 00:08:34;;;;;;;11.70;2.47;;;13.10;98.90;;;;;;4938005;28;92483;-72
2022/09/17 00:11:14;;;;;;;15.98;2.63;;;13.10;98.90;;;;;;4937704;28;93354;-72
2022/09/17 00:13:42;;;;;;;14.77;2.85;;;13.10;98.80;;;;;;4938200;28;95609;-72
2022/09/17 00:16:10;;;;;;;10.75;2.10;;;13.00;98.80;;;;;;4937556;28;96049;-72
2022/09/17 00:18:40;;;;;;;11.90;2.38;;;13.00;98.80;;;;;;4938748;28;101005;-72
2022/09/17 00:21:15;;;;;;;18.20;3.47;;;12.90;98.70;;;;;;4953629;28;92663;-72
2022/09/17 00:23:43;;;;;;;12.48;2.25;;;12.90;98.60;;;;;;4937893;28;96015;-72
2022/09/17 00:26:10;;;;;;;14.07;3.65;;;12.80;98.60;;;;;;4937204;28;94441;-72
2022/09/17 00:28:37;;;;;;;14.98;2.38;;;12.80;98.60;;;;;;4938027;28;92535;-72
2022/09/17 00:31:08;;;;;;;15.15;3.25;;;12.80;98.60;;;;;;4939456;28;92048;-72
2022/09/17 00:33:35;;;;;;;8.38;2.00;;;12.80;98.50;;;;;;4937534;28;95790;-72
2022/09/17 00:36:03;;;;;;;16.02;3.85;;;12.70;98.40;;;;;;4937587;28;92936;-72
2022/09/17 00:38:31;;;;;;;12.38;2.90;;;12.70;98.20;;;;;;4937831;28;94881;-72
2022/09/17 00:40:58;;;;;;;12.63;2.67;;;12.60;98.20;;;;;;4938205;28;92512;-72
2022/09/17 00:43:53;;;;;;;17.00;3.30;;;12.60;98.20;;;;;;4937757;28;93322;-72
2022/09/17 00:46:37;;;;;;;14.98;2.20;;;12.70;98.10;;;;;;4936385;28;92896;-72
2022/09/17 00:49:19;;;;;;;10.63;2.30;;;12.60;98.10;;;;;;4938881;28;92430;-72
2022/09/17 00:51:56;;;;;;;15.32;3.08;;;12.60;98.10;;;;;;4939034;28;92861;-72
2022/09/17 00:54:27;;;;;;;14.27;2.20;;;12.60;98.10;;;;;;4937642;28;93852;-72
2022/09/17 00:56:54;;;;;;;8.68;3.28;;;12.60;98.10;;;;;;4953461;28;107204;-72
2022/09/17 00:59:21;;;;;;;11.95;2.08;;;12.70;98.20;;;;;;4938410;28;92421;-72
2022/09/17 01:01:49;;;;;;;15.43;3.22;;;12.60;97.90;;;;;;4937475;28;92587;-72
2022/09/17 01:04:22;;;;;;;13.55;2.30;;;12.60;97.90;;;;;;4935719;28;98199;-72
2022/09/17 01:07:04;;;;;;;13.73;2.83;;;12.60;97.50;;;;;;4937008;28;98017;-72
2022/09/17 01:09:50;;;;;;;14.23;2.63;;;12.70;97.30;;;;;;4938703;28;92564;-72
2022/09/17 01:12:25;;;;;;;8.23;1.80;;;12.70;97.30;;;;;;4938578;28;92544;-72
2022/09/17 01:15:11;;;;;;;11.70;2.47;;;12.70;96.90;;;;;;4936820;28;95678;-72
2022/09/17 01:18:07;;;;;;;11.00;1.88;;;12.80;96.50;;;;;;4938346;28;92456;-72
2022/09/17 01:20:47;;;;;;;9.52;1.75;;;12.90;96.50;;;;;;4938695;28;93254;-72
2022/09/17 01:23:51;;;;;;;7.50;1.38;;;12.90;96.20;;;;;;4937210;28;91704;-72
2022/09/17 01:26:26;;;;;;;7.57;2.03;;;12.90;95.70;;;;;;4936378;28;95629;-72
2022/09/17 01:29:12;;;;;;;7.18;2.45;;;12.80;95.60;;;;;;4947552;28;95856;-72
2022/09/17 01:31:45;;;;;;;9.88;1.92;;;12.80;95.80;;;;;;4935720;28;94826;-72
2022/09/17 01:34:23;;;;;;;8.17;1.93;;;12.70;95.70;;;;;;4938223;28;92519;-72
2022/09/17 01:36:58;;;;;;;11.25;2.15;;;12.70;95.80;;;;;;4936958;28;93171;-72
2022/09/17 01:39:31;;;;;;;13.85;2.92;;;12.70;95.90;;;;;;4936882;28;93342;-72
2022/09/17 01:42:15;;;;;;;9.23;1.90;;;12.70;96.40;;;;;;4937617;28;93232;-73
2022/09/17 01:44:54;;;;;;;10.38;2.42;;;12.70;96.40;;;;;;4920802;28;92468;-75
2022/09/17 01:47:34;;;;;;;8.70;2.72;;;12.80;96.60;;;;;;4937660;28;93142;-74
2022/09/17 01:50:12;;;;;;;9.35;2.20;;;12.70;96.70;;;;;;4937253;28;92969;-73
2022/09/17 01:52:41;;;;;;;10.63;2.35;;;12.70;96.70;;;;;;4936756;28;93303;-72
2022/09/17 01:55:12;;;;;;;8.40;1.45;;;12.60;96.60;;;;;;4937725;28;92387;-72
2022/09/17 01:57:45;;;;;;;8.35;2.10;;;12.60;96.70;;;;;;4936817;28;95699;-72
2022/09/17 02:00:16;;;;;;;11.20;2.53;;;12.60;96.80;;;;;;4935658;28;98208;-72
2022/09/17 02:02:58;;;;;;;14.65;2.03;;;12.50;97.00;;;;;;4936865;28;92465;-72
2022/09/17 02:05:36;;;;;;;12.15;2.45;;;12.50;97.00;;;;;;4936278;28;92546;-72
2022/09/17 02:08:17;;;;;;;8.73;1.70;;;12.50;97.20;;;;;;4936621;28;93018;-72
2022/09/17 02:10:50;;;;;;;8.77;2.03;;;12.40;97.10;;;;;;4937592;28;93006;-75
2022/09/17 02:13:45;;;;;;;12.25;2.25;;;12.30;97.20;;;;;;4937740;28;92516;-74
2022/09/17 02:16:28;;;;;;;14.52;2.90;;;12.30;97.30;;;;;;4936547;28;92052;-75
2022/09/17 02:19:08;;;;;;;9.90;2.03;;;12.30;97.30;;;;;;4935922;28;95804;-75
2022/09/17 02:22:10;;;;;;;8.65;3.22;;;12.20;97.30;;;;;;4919852;28;98844;-74
2022/09/17 02:24:47;;;;;;;8.25;1.92;;;12.20;97.40;;;;;;4936760;28;94903;-74
2022/09/17 02:27:31;;;;;;;11.90;2.15;;;12.10;97.50;;;;;;4919982;28;92567;-75
2022/09/17 02:29:58;;;;;;;13.18;2.35;;;12.10;97.30;;;;;;4935699;28;95772;-73
2022/09/17 02:32:25;;;;;;;14.23;3.35;;;12.10;97.40;;;;;;4937141;28;92974;-72
2022/09/17 02:34:52;;;;;;;13.02;2.45;;;12.10;97.40;;;;;;4937304;28;92442;-72
2022/09/17 02:37:19;;;;;;;11.30;2.58;;;12.20;97.20;;;;;;4935469;28;92484;-72
2022/09/17 02:39:46;;;;;;;12.48;2.40;;;12.20;97.10;;;;;;4935565;28;103703;-72
2022/09/17 02:42:58;;;;;;;9.75;2.40;;;12.20;97.10;;;;;;4935494;28;93037;-72
2022/09/17 02:45:34;;;;;;;7.68;2.13;;;12.20;97.00;;;;;;4937349;28;93596;-72
2022/09/17 02:48:13;;;;;;;8.68;1.70;;;12.10;97.20;;;;;;4936164;28;93034;-72
2022/09/17 02:50:57;;;;;;;8.15;1.63;;;12.10;97.30;;;;;;4934339;28;98426;-72
2022/09/17 02:53:59;;;;;;;12.38;2.97;;;12.00;97.30;;;;;;4936897;28;95188;-72
2022/09/17 02:57:07;;;;;;;9.63;2.28;;;12.00;97.30;;;;;;4937192;28;92477;-72
2022/09/17 02:59:52;;;;;;;7.03;1.88;;;11.90;97.40;;;;;;4930719;28;92471;-72
2022/09/17 03:02:42;;;;;;;12.75;2.20;;;11.90;97.40;;;;;;4936775;28;93174;-72
2022/09/17 03:05:10;;;;;;;9.68;1.95;;;11.90;97.50;;;;;;4919317;28;95830;-73
2022/09/17 03:07:38;;;;;;;14.32;2.35;;;11.90;97.50;;;;;;4935617;28;93081;-72
2022/09/17 03:10:05;;;;;;;9.75;2.30;;;11.90;97.50;;;;;;4936001;28;91814;-72
2022/09/17 03:12:32;;;;;;;9.13;1.88;;;11.90;97.30;;;;;;4933658;28;105022;-72
2022/09/17 03:14:59;;;;;;;11.55;2.63;;;11.90;97.30;;;;;;4935429;28;94758;-72
2022/09/17 03:17:26;;;;;;;17.48;2.50;;;11.90;97.20;;;;;;4934008;28;95002;-72
2022/09/17 03:19:53;;;;;;;8.23;2.10;;;11.80;97.00;;;;;;4936686;28;92509;-72
2022/09/17 03:22:20;;;;;;;9.73;1.92;;;11.80;97.00;;;;;;4935092;28;93653;-72
2022/09/17 03:24:47;;;;;;;10.57;3.75;;;11.80;97.00;;;;;;4936551;28;93038;-74
2022/09/17 03:27:14;;;;;;;8.25;2.40;;;11.70;97.00;;;;;;4935318;28;92406;-74
2022/09/17 03:29:41;;;;;;;7.93;2.08;;;11.70;96.90;;;;;;4919207;28;92526;-74
2022/09/17 03:32:08;;;;;;;8.10;2.00;;;11.70;97.00;;;;;;4935351;28;93287;-74
2022/09/17 03:34:35;;;;;;;7.72;1.70;;;11.70;97.00;;;;;;4936595;28;91835;-74
2022/09/17 03:37:02;;;;;;;6.90;1.30;;;11.70;97.00;;;;;;4935249;28;92512;-74
2022/09/17 03:39:29;;;;;;;8.23;2.08;;;11.70;97.00;;;;;;4936328;28;92441;-74
2022/09/17 03:41:56;;;;;;;10.45;1.80;;;11.70;96.90;;;;;;4934656;28;102705;-74
2022/09/17 03:44:23;;;;;;;12.05;1.75;;;11.70;96.90;;;;;;4936121;28;95463;-74
2022/09/17 03:46:50;;;;;;;7.25;1.80;;;11.60;96.90;;;;;;4936703;28;92433;-74
2022/09/17 03:49:17;;;;;;;12.73;2.55;;;11.60;97.00;;;;;;4936461;28;92457;-74
2022/09/17 03:51:44;;;;;;;7.93;1.50;;;11.60;97.00;;;;;;4936068;28;92819;-73
2022/09/17 03:54:11;;;;;;;12.60;2.20;;;11.60;97.00;;;;;;4934792;28;93943;-72
2022/09/17 03:56:38;;;;;;;7.28;1.42;;;11.60;97.00;;;;;;4936125;28;92467;-72
2022/09/17 03:59:05;;;;;;;9.82;1.73;;;11.50;97.10;;;;;;4936592;28;95368;-72
2022/09/17 04:01:32;;;;;;;10.00;1.67;;;11.50;97.00;;;;;;4935973;28;93098;-72
2022/09/17 04:03:59;;;;;;;10.63;2.05;;;11.50;97.10;;;;;;4934560;28;93037;-72
2022/09/17 04:06:26;;;;;;;11.88;1.92;;;11.50;97.10;;;;;;4917689;28;94915;-72
2022/09/17 04:08:53;;;;;;;10.30;1.77;;;11.50;97.30;;;;;;4935104;28;92515;-72
2022/09/17 04:11:19;;;;;;;11.40;1.83;;;11.50;97.40;;;;;;4934536;28;95798;-72
2022/09/17 04:13:47;;;;;;;12.30;1.90;;;11.50;97.60;;;;;;4934699;28;93486;-72
2022/09/17 04:16:14;;;;;;;6.80;1.70;;;11.50;97.90;;;;;;4918911;28;93110;-72
2022/09/17 04:18:41;;;;;;;6.70;1.38;;;11.50;97.70;;;;;;4934692;28;92523;-72
2022/09/17 04:21:07;;;;;;;8.88;1.60;;;11.50;97.50;;;;;;4934124;28;106541;-72
2022/09/17 04:23:34;;;;;;;10.32;2.10;;;11.60;97.30;;;;;;4936862;28;92916;-72
2022/09/17 04:26:01;;;;;;;6.28;1.48;;;11.60;97.10;;;;;;4939478;28;93011;-72
2022/09/17 04:28:28;;;;;;;8.82;1.70;;;11.60;97.00;;;;;;4939219;28;92446;-72
2022/09/17 04:30:56;;;;;;;7.60;2.35;;;11.70;96.80;;;;;;4937877;28;95785;-72
2022/09/17 04:33:23;;;;;;;5.32;1.40;;;11.60;96.90;;;;;;4937469;28;97993;-72
2022/09/17 04:35:50;;;;;;;6.93;1.55;;;11.70;97.00;;;;;;4937950;28;92535;-72
2022/09/17 04:38:19;;;;;;;6.90;1.70;;;11.60;97.00;;;;;;4937720;28;92485;-72
2022/09/17 04:40:46;;;;;;;13.65;2.28;;;11.60;97.00;;;;;;4938048;28;101158;-72
2022/09/17 04:43:13;;;;;;;8.70;1.45;;;11.60;97.00;;;;;;4937465;28;95935;-72
2022/09/17 04:45:40;;;;;;;8.23;1.58;;;11.60;97.00;;;;;;4921619;28;92479;-74
2022/09/17 04:48:07;;;;;;;9.07;1.65;;;11.60;97.10;;;;;;4939517;28;91815;-74
2022/09/17 04:50:34;;;;;;;3.72;1.65;;;11.60;97.10;;;;;;4938771;28;93350;-74
2022/09/17 04:53:02;;;;;;;7.72;1.85;;;11.50;97.20;;;;;;4937515;28;94965;-74
2022/09/17 04:55:30;;;;;;;7.82;1.73;;;11.40;97.40;;;;;;4920142;28;96125;-74
2022/09/17 04:57:57;;;;;;;7.70;1.70;;;11.40;97.50;;;;;;4937766;28;92968;-74
2022/09/17 05:00:24;;;;;;;6.75;1.30;;;11.50;97.60;;;;;;4920943;28;95824;-74
2022/09/17 05:02:53;;;;;;;12.25;1.73;;;11.50;97.70;;;;;;4937140;28;92967;-73
2022/09/17 05:05:23;;;;;;;9.45;2.45;;;11.50;97.70;;;;;;4938503;28;92500;-72
2022/09/17 05:07:50;;;;;;;8.27;1.40;;;11.50;97.80;;;;;;4938522;28;92520;-72
2022/09/17 05:10:19;;;;;;;9.85;1.63;;;11.50;97.60;;;;;;4938349;28;100847;-72
2022/09/17 05:12:54;;;;;;;8.73;1.65;;;11.50;97.60;;;;;;4938530;28;93151;-72
2022/09/17 05:15:22;;;;;;;10.85;1.83;;;11.50;97.60;;;;;;4938633;28;92401;-72
2022/09/17 05:17:49;;;;;;;12.65;2.22;;;11.50;97.60;;;;;;4938543;28;92466;-72
2022/09/17 05:20:17;;;;;;;8.40;1.70;;;11.50;97.70;;;;;;4935874;28;95768;-72
2022/09/17 05:22:49;;;;;;;5.07;1.65;;;11.40;97.60;;;;;;4936614;28;98286;-72
2022/09/17 05:25:18;;;;;;;9.48;2.17;;;11.40;97.60;;;;;;4937242;28;92484;-72
2022/09/17 05:27:45;;;;;;;12.55;1.63;;;11.40;97.60;;;;;;4938140;28;92888;-72
2022/09/17 05:30:12;;;;;;;12.30;1.85;;;11.40;97.80;;;;;;4938150;28;93442;-72
2022/09/17 05:32:39;;;;;;;9.82;2.33;;;11.40;97.40;;;;;;4936813;28;93035;-72
2022/09/17 05:35:08;;;;;;;12.77;1.85;;;11.30;97.60;;;;;;4937036;28;97695;-72
2022/09/17 05:37:36;;;;;;;11.05;1.63;;;11.30;97.70;;;;;;4937004;28;91820;-72
2022/09/17 05:40:06;;;;;;;8.07;1.63;;;11.30;97.60;;;;;;4938052;28;93320;-72
2022/09/17 05:42:33;;;;;;;7.80;1.80;;;11.30;97.60;;;;;;4937480;28;94251;-72
2022/09/17 05:45:00;;;;;;;10.18;1.60;;;11.30;97.60;;;;;;4935916;28;94927;-72
2022/09/17 05:47:27;;;;;;;9.20;1.95;;;11.30;97.60;;;;;;4937065;28;92495;-72
2022/09/17 05:49:54;;;;;;;8.45;1.70;;;11.30;97.70;;;;;;4936356;28;95960;-72
2022/09/17 05:52:21;;;;;;;12.05;1.90;;;11.30;97.70;;;;;;4919901;28;109321;-72
2022/09/17 05:54:48;;;;;;;5.18;1.60;;;11.30;97.70;;;;;;4937786;28;92463;-72
2022/09/17 05:57:15;;;;;;;8.45;1.52;;;11.30;97.60;;;;;;4938200;28;92498;-72
2022/09/17 05:59:42;;;;;;;8.98;1.70;;;11.40;97.70;;;;;;4936061;28;95768;-72
2022/09/17 06:02:12;;;;;;;7.30;1.70;;;11.40;97.60;;;;;;4938079;28;92922;-72
2022/09/17 06:04:39;;;;;;;10.02;1.95;;;11.60;97.70;;;;;;4936573;28;92551;-72
2022/09/17 06:07:08;;;;;;;11.85;2.40;;;11.70;97.60;;;;;;4937255;28;101613;-72
2022/09/17 06:09:39;;;;;;;11.05;2.30;;;11.90;97.50;;;;;;4936291;28;95656;-72
2022/09/17 06:12:07;;;;;;;8.48;2.17;;;12.20;97.40;;;;;;4936484;28;95419;-72
2022/09/17 06:14:34;;;;;;;12.35;2.67;;;12.40;96.90;;;;;;4936588;28;92378;-72
2022/09/17 06:17:01;;;;;;;9.80;2.50;;;12.60;96.50;;;;;;4937342;28;92751;-72
2022/09/17 06:19:27;;;;;;;10.38;2.00;;;12.70;96.30;;;;;;4935966;28;95705;-72
2022/09/17 06:21:54;;;;;;;10.07;1.83;;;12.80;96.50;;;;;;4935675;28;93972;-72
2022/09/17 06:24:22;;;;;;;9.15;1.83;;;12.90;96.50;;;;;;4937649;28;92491;-72
2022/09/17 06:26:50;;;;;;;5.95;1.67;;;13.00;96.50;;;;;;4920272;28;92274;-72
2022/09/17 06:29:17;;;;;;;7.88;1.90;;;13.10;96.00;;;;;;4903566;28;113290;-72
2022/09/17 06:31:44;;;;;;;9.07;2.13;;;13.30;95.80;;;;;;4935893;28;92923;-72
2022/09/17 06:34:11;;;;;;;5.03;1.35;;;13.50;95.60;;;;;;4918750;28;95317;-72
2022/09/17 06:36:38;;;;;;;5.93;1.58;;;13.80;95.10;;;;;;4936290;28;92441;-72
2022/09/17 06:39:05;;;;;;;6.13;1.10;;;13.90;94.20;;;;;;4937029;28;93316;-72
2022/09/17 06:41:33;;;;;;;3.10;1.20;;;13.90;93.10;;;;;;4934232;28;112696;-72
2022/09/17 06:44:03;;;;;;;4.82;2.13;;;13.90;93.30;;;;;;4920121;28;92507;-72
2022/09/17 06:46:29;;;;;;;5.93;1.80;;;13.80;92.70;;;;;;4935589;28;93039;-72
2022/09/17 06:48:56;;;;;;;7.15;2.30;;;13.60;96.20;;;;;;4936882;28;92494;-72
2022/09/17 06:51:23;;;;;;;7.00;2.35;;;13.30;95.50;;;;;;4937387;28;91798;-72
2022/09/17 06:53:50;;;;;;;7.88;1.63;;;13.10;96.40;;;;;;4935439;28;92982;-72
2022/09/17 06:56:17;;;;;;;3.45;1.30;;;12.90;96.70;;;;;;4935643;28;94288;-72
2022/09/17 06:58:44;;;;;;;7.53;1.88;;;12.80;96.60;;;;;;4933871;28;98120;-72
2022/09/17 07:01:11;;;;;;;3.53;2.03;;;12.70;96.70;;;;;;4936648;28;95400;-72
2022/09/17 07:03:41;;;;;;;4.03;1.30;;;12.70;96.80;;;;;;4934966;28;105960;-72
2022/09/17 07:06:09;;;;;;;2.95;1.13;;;12.70;96.90;;;;;;4936652;28;92542;-72
2022/09/17 07:08:37;;;;;;;5.13;1.38;;;12.80;96.80;;;;;;4936681;28;93252;-72
2022/09/17 07:11:04;;;;;;;5.38;1.77;;;13.00;96.60;;;;;;4936431;28;93063;-72
2022/09/17 07:13:31;;;;;;;3.83;1.10;;;13.10;96.40;;;;;;4936882;28;92440;-72
2022/09/17 07:16:01;;;;;;;4.50;1.08;;;13.20;96.30;;;;;;4937166;28;91604;-72
2022/09/17 07:18:28;;;;;;;3.38;1.02;;;13.20;96.10;;;;;;4919247;28;95732;-72
2022/09/17 07:20:57;;;;;;;6.22;1.33;;;13.20;95.70;;;;;;4934802;28;101978;-72
2022/09/17 07:23:27;;;;;;;6.22;1.00;;;13.30;95.90;;;;;;4935504;28;94919;-72
2022/09/17 07:25:57;;;;;;;4.40;1.88;;;13.40;95.60;;;;;;4936380;28;92521;-72
2022/09/17 07:28:25;;;;;;;4.40;1.30;;;13.40;95.50;;;;;;4919060;28;95917;-72
2022/09/17 07:30:52;;;;;;;7.07;6.53;;;13.50;95.50;;;;;;4934942;28;93086;-72
2022/09/17 07:33:23;;;;;;;4.03;1.95;;;13.50;95.30;;;;;;4935303;28;92884;-72
2022/09/17 07:35:58;;;;;;;6.22;3.42;;;13.70;95.20;;;;;;4936720;28;92908;-72
2022/09/17 07:38:28;;;;;;;8.20;2.17;;;13.80;95.10;;;;;;4936615;28;93218;-72
2022/09/17 07:41:03;;;;;;;26.98;25.77;;;14.00;95.00;;;;;;4935711;28;91852;-72
2022/09/17 07:43:32;;;;;;;17.75;16.83;;;14.20;94.70;;;;;;4935011;28;92524;-72
2022/09/17 07:46:01;;;;;;;36.17;34.72;;;14.50;94.80;;;;;;4935045;28;104182;-72
2022/09/17 07:48:29;;;;;;;8.63;1.85;;;15.00;94.60;;;;;;4934351;28;95676;-72
2022/09/17 07:50:56;;;;;;;3.75;1.90;;;15.30;93.50;;;;;;4935619;28;95191;-72
2022/09/17 07:53:23;;;;;;;8.63;4.32;;;15.40;92.50;;;;;;4918918;28;92497;-72
2022/09/17 07:55:55;;;;;;;8.48;4.65;;;15.30;92.60;;;;;;4934858;28;93376;-72
2022/09/17 07:58:26;;;;;;;5.20;2.33;;;15.30;93.50;;;;;;4920501;28;94462;-72
2022/09/17 08:01:02;;;;;;;6.30;1.85;;;15.10;93.90;;;;;;4939493;28;92885;-75
2022/09/17 08:03:29;;;;;;;9.30;8.43;;;14.90;93.00;;;;;;4938187;28;93035;-73
2022/09/17 08:06:04;;;;;;;6.30;5.55;;;14.70;93.90;;;;;;4939314;28;103003;-72
2022/09/17 08:08:34;;;;;;;8.35;7.70;;;15.00;94.50;;;;;;4939188;28;92539;-72
2022/09/17 08:11:07;;;;;;;9.82;9.15;;;15.50;94.40;;;;;;4939248;28;92686;-73
2022/09/17 08:13:34;;;;;;;6.50;5.90;;;16.30;93.90;;;;;;4938498;28;95005;-72
2022/09/17 08:16:07;;;;;;;6.55;5.93;;;17.00;93.10;;;;;;4939268;28;92448;-73
2022/09/17 08:18:35;;;;;;;7.03;6.43;;;17.90;91.90;;;;;;4939030;28;93694;-73
2022/09/17 08:21:04;;;;;;;4.32;1.90;;;18.60;91.00;;;;;;4938733;28;92946;-73
2022/09/17 08:23:34;;;;;;;6.40;1.55;;;19.20;89.20;;;;;;4939442;28;92364;-73
2022/09/17 08:26:02;;;;;;;4.55;1.92;;;19.60;87.00;;;;;;4921388;28;92502;-73
2022/09/17 08:28:30;;;;;;;6.68;1.90;;;19.50;86.20;;;;;;4937159;28;106308;-73
2022/09/17 08:31:02;;;;;;;7.57;2.25;;;19.20;86.30;;;;;;4939193;28;92815;-73
2022/09/17 08:33:31;;;;;;;9.10;3.05;;;18.90;87.00;;;;;;4939182;28;92552;-73
2022/09/17 08:35:58;;;;;;;3.95;1.35;;;18.60;87.40;;;;;;4939092;28;92365;-73
2022/09/17 08:38:26;;;;;;;6.80;1.73;;;18.20;88.10;;;;;;4937811;28;95372;-73
2022/09/17 08:41:12;;;;;;;5.32;1.58;;;18.00;89.00;;;;;;4938157;28;94211;-72
2022/09/17 08:43:42;;;;;;;5.43;1.88;;;18.00;88.50;;;;;;4937864;28;92573;-72
2022/09/17 08:46:10;;;;;;;8.23;1.80;;;17.90;89.60;;;;;;4938722;28;92471;-73
2022/09/17 08:48:57;;;;;;;3.88;1.13;;;17.80;89.90;;;;;;4921329;28;96159;-73
2022/09/17 08:51:47;;;;;;;4.20;2.63;;;17.90;89.10;;;;;;4938857;28;93129;-73
2022/09/17 08:54:41;;;;;;;5.68;1.85;;;17.70;87.40;;;;;;4938819;28;92875;-73
2022/09/17 08:57:23;;;;;;;7.33;0.90;;;17.50;87.20;;;;;;4935591;28;91651;-72
2022/09/17 08:59:58;;;;;;;4.38;1.58;;;17.30;87.90;;;;;;4938829;28;93009;-72
2022/09/17 09:03:10;;;;;;;4.60;1.75;;;17.10;88.30;;;;;;4938675;28;93086;-72
2022/09/17 09:05:51;;;;;;;7.05;1.70;;;16.90;88.30;;;;;;4936185;28;94953;-75
2022/09/17 09:08:41;;;;;;;7.43;1.45;;;16.60;89.70;;;;;;4937388;28;92441;-73
2022/09/17 09:11:20;;;;;;;6.05;1.70;;;16.50;90.20;;;;;;4936810;28;96197;-72
2022/09/17 09:13:56;;;;;;;6.60;2.03;;;16.40;90.90;;;;;;4937547;28;92552;-72
2022/09/17 09:16:27;;;;;;;6.50;2.20;;;16.40;91.20;;;;;;4938598;28;92462;-72
2022/09/17 09:18:58;;;;;;;6.47;1.58;;;16.40;91.10;;;;;;4938569;28;92472;-72
2022/09/17 09:21:35;;;;;;;5.22;1.58;;;16.50;90.90;;;;;;4936710;28;95733;-72
2022/09/17 09:24:02;;;;;;;5.13;1.60;;;16.70;90.80;;;;;;4938996;28;92905;-72
2022/09/17 09:26:46;;;;;;;5.75;1.20;;;16.80;90.80;;;;;;4937044;28;92501;-72
2022/09/17 09:29:44;;;;;;;5.50;1.45;;;16.70;92.30;;;;;;4920665;28;92524;-73
2022/09/17 09:32:18;;;;;;;6.13;1.98;;;16.40;91.70;;;;;;4937054;28;95672;-72
2022/09/17 09:34:46;;;;;;;5.80;2.33;;;15.90;91.40;;;;;;4936523;28;98475;-72
2022/09/17 09:37:20;;;;;;;5.70;1.60;;;15.70;91.90;;;;;;4937398;28;105321;-72
2022/09/17 09:39:49;;;;;;;;;;;15.50;92.10;;;;;;4937575;28;92443;-72
2022/09/17 09:42:29;;;;;;;7.05;2.22;;;15.30;92.90;;;;;;4937183;28;93203;-72
2022/09/17 09:45:03;;;;;;;5.00;1.08;;;15.20;92.50;;;;;;4938179;28;92929;-72
2022/09/17 09:47:52;;;;;;;4.75;1.63;;;15.20;92.60;;;;;;4936994;28;92440;-72
2022/09/17 09:50:22;;;;;;;4.03;1.30;;;15.50;93.20;;;;;;4936576;28;91639;-73
2022/09/17 09:52:57;;;;;;;5.95;1.45;;;15.60;93.40;;;;;;4936195;28;95615;-72
2022/09/17 09:55:57;;;;;;;5.18;1.60;;;15.80;93.20;;;;;;4937627;28;92848;-72
2022/09/17 09:58:33;;;;;;;7.07;1.50;;;16.00;92.40;;;;;;4925551;28;95423;-72
2022/09/17 10:01:00;;;;;;;8.30;1.95;;;16.10;92.10;;;;;;4936502;28;92541;-75
2022/09/17 10:03:34;;;;;;;4.60;1.30;;;16.20;91.80;;;;;;4920093;28;95605;-75
2022/09/17 10:06:03;;;;;;;6.47;1.75;;;16.40;91.90;;;;;;4937980;28;92988;-73
2022/09/17 10:08:33;;;;;;;5.22;1.80;;;16.40;91.50;;;;;;4937573;28;92484;-72
2022/09/17 10:11:04;;;;;;;5.15;1.30;;;16.40;91.50;;;;;;4936457;28;92395;-73
2022/09/17 10:13:35;;;;;;;4.30;1.15;;;16.40;91.50;;;;;;4919823;28;95954;-72
2022/09/17 10:16:23;;;;;;;7.20;1.88;;;16.20;91.00;;;;;;4937966;28;92900;-73
2022/09/17 10:19:02;;;;;;;4.82;1.40;;;16.20;91.20;;;;;;4936348;28;93161;-72
2022/09/17 10:21:38;;;;;;;3.10;1.17;;;16.20;91.50;;;;;;4935655;28;92503;-72
2022/09/17 10:24:32;;;;;;;5.35;1.70;;;16.20;91.70;;;;;;4936018;28;95875;-72
2022/09/17 10:27:05;;;;;;;5.18;1.73;;;16.20;91.60;;;;;;4932769;28;95635;-72
2022/09/17 10:29:33;;;;;;;6.50;2.63;;;16.00;91.90;;;;;;4937708;28;92337;-72
2022/09/17 10:32:01;;;;;;;5.43;1.52;;;16.00;92.40;;;;;;4937019;28;101464;-72
2022/09/17 10:34:30;;;;;;;4.70;1.75;;;16.00;92.30;;;;;;4935806;28;93298;-72
2022/09/17 10:36:57;;;;;;;7.82;2.47;;;16.00;92.40;;;;;;4937462;28;93174;-72
2022/09/17 10:39:33;;;;;;;6.60;2.72;;;16.10;92.50;;;;;;4919692;28;92373;-72
2022/09/17 10:42:14;;;;;;;5.40;1.30;;;16.10;92.60;;;;;;4936428;28;91777;-72
2022/09/17 10:44:53;;;;;;;6.32;1.63;;;16.20;93.00;;;;;;4936992;28;93155;-72
2022/09/17 10:47:35;;;;;;;3.92;1.55;;;16.20;93.30;;;;;;4935391;28;95667;-75
2022/09/17 10:50:15;;;;;;;5.60;2.58;;;16.40;93.00;;;;;;4936315;28;94840;-75
2022/09/17 10:52:51;;;;;;;9.18;1.85;;;16.50;92.70;;;;;;4937145;28;92495;-73
2022/09/17 10:55:18;;;;;;;7.18;2.70;;;16.70;91.80;;;;;;4935411;28;95668;-72
2022/09/17 10:58:06;;;;;;;4.90;1.40;;;16.60;91.90;;;;;;4935396;28;95476;-72
2022/09/17 11:00:45;;;;;;;7.93;1.33;;;16.50;91.30;;;;;;4935291;28;93726;-72
2022/09/17 11:03:21;;;;;;;7.43;1.63;;;16.30;91.70;;;;;;4935729;28;92522;-72
2022/09/17 11:06:09;;;;;;;5.60;2.25;;;16.30;91.80;;;;;;4936878;28;93188;-72
2022/09/17 11:09:03;;;;;;;5.70;1.70;;;16.30;91.10;;;;;;4935658;28;95650;-72
2022/09/17 11:12:19;;;;;;;9.13;3.28;;;16.30;91.00;;;;;;4935392;28;92535;-72
2022/09/17 11:14:54;;;;;;;4.35;1.25;;;16.40;91.20;;;;;;4922487;28;92613;-73
2022/09/17 11:17:52;;;;;;;6.25;1.48;;;16.50;91.40;;;;;;4934335;28;95674;-72
2022/09/17 11:20:35;;;;;;;4.68;1.45;;;16.60;91.00;;;;;;4936406;28;95418;-72
2022/09/17 11:23:24;;;;;;;9.17;2.50;;;16.70;91.40;;;;;;4936932;28;92578;-72
2022/09/17 11:26:00;;;;;;;6.20;1.70;;;17.00;90.70;;;;;;4936827;28;93061;-72
2022/09/17 11:28:42;;;;;;;7.40;2.75;;;17.20;90.50;;;;;;4936351;28;93182;-72
2022/09/17 11:31:15;;;;;;;7.90;3.15;;;17.60;90.50;;;;;;4935562;28;92546;-72
2022/09/17 11:34:20;;;;;;;7.13;2.00;;;17.60;89.00;;;;;;4938126;28;92479;-73
2022/09/17 11:37:05;;;;;;;12.05;2.30;;;17.70;90.10;;;;;;4920704;28;91819;-72
2022/09/17 11:39:47;;;;;;;8.30;2.90;;;17.50;89.90;;;;;;4939867;28;93418;-73
2022/09/17 11:42:29;;;;;;;6.45;2.20;;;17.50;89.70;;;;;;4922380;28;95657;-73
2022/09/17 11:45:13;;;;;;;10.90;6.28;;;17.40;89.30;;;;;;4939010;28;95504;-73
2022/09/17 11:47:58;;;;;;;7.20;3.40;;;17.40;89.30;;;;;;4939788;28;92430;-73
2022/09/17 11:50:42;;;;;;;11.02;3.88;;;17.60;89.40;;;;;;4939417;28;93318;-73
2022/09/17 11:53:19;;;;;;;7.63;2.67;;;17.60;90.30;;;;;;4922354;28;94229;-73
2022/09/17 11:55:55;;;;;;;6.72;3.47;;;17.50;85.80;;;;;;4922235;28;92455;-72
2022/09/17 11:58:47;;;;;;;9.55;2.75;;;17.30;80.60;;;;;;4938572;28;92467;-72
2022/09/17 12:01:30;;;;;;;7.32;3.08;;;17.60;87.30;;;;;;4938038;28;93297;-73
2022/09/17 12:04:29;;;;;;;5.75;1.70;;;17.90;88.80;;;;;;4938093;28;95675;-72
2022/09/17 12:07:03;;;;;;;5.53;2.22;;;18.20;87.70;;;;;;4939671;28;92425;-72
2022/09/17 12:09:33;;;;;;;6.53;1.90;;;18.30;87.30;;;;;;4939588;28;92916;-73
2022/09/17 12:12:08;;;;;;;6.93;2.90;;;18.50;86.30;;;;;;4941028;28;98215;-72
2022/09/17 12:14:46;;;;;;;7.33;2.30;;;18.20;88.40;;;;;;4943225;28;95400;-72
2022/09/17 12:17:22;;;;;;;10.38;2.13;;;17.40;91.60;;;;;;4939580;28;92353;-72
2022/09/17 12:20:02;;;;;;;16.95;2.08;;;16.90;90.00;;;;;;4921868;28;92495;-72
2022/09/17 12:22:33;;;;;;;10.38;4.03;;;16.50;89.70;;;;;;4939359;28;93302;-72
2022/09/17 12:25:10;;;;;;;8.60;2.15;;;16.50;88.40;;;;;;4939424;28;93306;-72
2022/09/17 12:27:58;;;;;;;10.95;3.10;;;16.60;85.60;;;;;;4938236;28;92549;-73
2022/09/17 12:30:34;;;;;;;9.15;2.08;;;16.90;85.30;;;;;;4938451;28;91771;-73
2022/09/17 12:33:19;;;;;;;5.28;1.50;;;17.00;83.20;;;;;;4937675;28;95887;-73
2022/09/17 12:36:06;;;;;;;7.95;2.13;;;17.10;84.40;;;;;;4937496;28;95587;-73
2022/09/17 12:38:57;;;;;;;9.68;2.20;;;16.80;83.90;;;;;;4937990;28;95336;-73
2022/09/17 12:41:52;;;;;;;8.52;2.50;;;16.50;85.10;;;;;;4938207;28;92490;-73
2022/09/17 12:44:51;;;;;;;11.27;3.08;;;16.50;87.00;;;;;;4938755;28;93172;-73
2022/09/17 12:47:36;;;;;;;10.70;3.58;;;16.70;85.60;;;;;;4938669;28;92931;-73
2022/09/17 12:50:38;;;;;;;6.13;1.35;;;17.20;82.40;;;;;;4939225;28;92397;-73
2022/09/17 12:53:33;;;;;;;11.50;2.33;;;17.70;80.50;;;;;;4936289;28;92498;-73
2022/09/17 12:56:11;;;;;;;7.82;2.05;;;17.90;80.70;;;;;;4939267;28;93080;-73
2022/09/17 12:59:18;;;;;;;9.20;1.80;;;17.70;79.80;;;;;;4939125;28;92867;-73
2022/09/17 13:01:49;;;;;;;9.05;1.63;;;17.30;85.80;;;;;;4938841;28;92405;-73
2022/09/17 13:04:28;;;;;;;8.63;1.88;;;16.70;86.90;;;;;;4921376;28;92545;-73
2022/09/17 13:07:24;;;;;;;6.88;2.47;;;16.40;88.30;;;;;;4937632;28;95682;-73
2022/09/17 13:10:01;;;;;;;8.68;1.90;;;16.30;88.10;;;;;;4937359;28;95388;-73
2022/09/17 13:12:38;;;;;;;5.10;1.40;;;16.20;86.80;;;;;;4939087;28;92462;-73
2022/09/17 13:15:29;;;;;;;6.68;1.77;;;16.40;86.20;;;;;;4938942;28;92552;-73
2022/09/17 13:18:16;;;;;;;8.43;2.25;;;16.60;84.80;;;;;;4936907;28;95802;-73
2022/09/17 13:21:05;;;;;;;6.78;2.03;;;16.80;84.30;;;;;;4936805;28;94291;-73